Current | Forecast
Updated: 9:30 AM MSK on December 13, 2017
Observed at Mineral'Nye Vody, Russia
Temperature 28°F
Humidity 93%
Dew Point 27°F
Wind North at 0 mph
Pressure 30.24 in (Steady)
Conditions Clear
Visibility 6.2 miles
UV N/A
Clouds
Yesterday's Maximum 50°F
Yesterday's Minimum 28°F approx.
Yesterday's Heating Degree Days 26 approx.
Sunrise7:33 AM MSK
Sunset4:29 PM MSK
Moon Rise2:27 AM MSK
Moon Set2:05 PM MSK
Moon PhaseMoon Phase
Waning Crescent
Raw METARMETAR URMM 130630Z 00000MPS 9999 NSC M02/M03 Q1024 R12/090070 NOSIG RMK QFE739/0986


Monday
. High: 71° F.
Tuesday
. High: 68° F.
Wednesday
. High: 60° F.
Thursday
. High: 64° F.
Friday
. High: 62° F.
Saturday
. High: 64° F.
Sunday
. High: 60° F.
Monday
. High: 66° F.

Units: English | Metric

Find the Weather for any City, State or Zipcode, or Country:

U.S. State List | Severe Weather | Tropical Storms | Ski Conditions
United States | Canada | Central America | South America | Asia | Europe | Australia | Africa | Islands

Weather Underground

© Copyright 2017
The Weather Company, LLC